sensor_id;sensor_type;location;lat;lon;timestamp;temperature;humidity
7894;DHT22;51343;51.396;6.656;2022-12-18T00:01:15;-4.00;1.00
7894;DHT22;51343;51.396;6.656;2022-12-18T00:03:42;-4.00;1.00
7894;DHT22;51343;51.396;6.656;2022-12-18T00:06:09;-4.00;1.00
7894;DHT22;51343;51.396;6.656;2022-12-18T00:08:36;-4.10;1.00
7894;DHT22;51343;51.396;6.656;2022-12-18T00:11:04;-4.10;1.00
7894;DHT22;51343;51.396;6.656;2022-12-18T00:13:44;-4.10;1.00
7894;DHT22;51343;51.396;6.656;2022-12-18T00:16:12;-4.10;1.00
7894;DHT22;51343;51.396;6.656;2022-12-18T00:18:41;-4.20;1.00
7894;DHT22;51343;51.396;6.656;2022-12-18T00:21:14;-4.20;1.00
7894;DHT22;51343;51.396;6.656;2022-12-18T00:23:42;-4.20;1.00
7894;DHT22;51343;51.396;6.656;2022-12-18T00:26:10;-4.30;1.00
7894;DHT22;51343;51.396;6.656;2022-12-18T00:31:29;-4.30;1.00
7894;DHT22;51343;51.396;6.656;2022-12-18T00:34:03;-4.20;1.00
7894;DHT22;51343;51.396;6.656;2022-12-18T00:36:30;-4.20;1.00
7894;DHT22;51343;51.396;6.656;2022-12-18T00:38:57;-4.30;1.00
7894;DHT22;51343;51.396;6.656;2022-12-18T00:41:25;-4.30;1.00
7894;DHT22;51343;51.396;6.656;2022-12-18T00:44:10;-4.40;1.00
7894;DHT22;51343;51.396;6.656;2022-12-18T00:46:37;-4.30;1.00
7894;DHT22;51343;51.396;6.656;2022-12-18T00:49:05;-4.30;1.00
7894;DHT22;51343;51.396;6.656;2022-12-18T00:51:32;-4.30;1.00
7894;DHT22;51343;51.396;6.656;2022-12-18T00:53:58;-4.30;1.00
7894;DHT22;51343;51.396;6.656;2022-12-18T00:56:25;-4.30;1.00
7894;DHT22;51343;51.396;6.656;2022-12-18T00:58:52;-4.40;99.90
7894;DHT22;51343;51.396;6.656;2022-12-18T01:01:18;-4.40;1.00
7894;DHT22;51343;51.396;6.656;2022-12-18T01:03:45;-4.30;1.00
7894;DHT22;51343;51.396;6.656;2022-12-18T01:06:13;-4.30;1.00
7894;DHT22;51343;51.396;6.656;2022-12-18T01:11:45;-4.30;1.00
7894;DHT22;51343;51.396;6.656;2022-12-18T01:14:12;-4.30;1.00
7894;DHT22;51343;51.396;6.656;2022-12-18T01:16:39;-4.40;1.00
7894;DHT22;51343;51.396;6.656;2022-12-18T01:19:05;-4.40;1.00
7894;DHT22;51343;51.396;6.656;2022-12-18T01:21:34;-4.50;1.00
7894;DHT22;51343;51.396;6.656;2022-12-18T01:24:00;-4.50;1.00
7894;DHT22;51343;51.396;6.656;2022-12-18T01:26:27;-4.50;1.00
7894;DHT22;51343;51.396;6.656;2022-12-18T01:28:55;-4.50;99.90
7894;DHT22;51343;51.396;6.656;2022-12-18T01:31:22;-4.50;99.90
7894;DHT22;51343;51.396;6.656;2022-12-18T01:33:49;-4.40;99.90
7894;DHT22;51343;51.396;6.656;2022-12-18T01:36:17;-4.30;93.20
7894;DHT22;51343;51.396;6.656;2022-12-18T01:41:48;-4.30;18.50
7894;DHT22;51343;51.396;6.656;2022-12-18T01:47:33;-4.40;99.90
7894;DHT22;51343;51.396;6.656;2022-12-18T01:50:00;-4.30;44.30
7894;DHT22;51343;51.396;6.656;2022-12-18T01:52:29;-4.30;1.00
7894;DHT22;51343;51.396;6.656;2022-12-18T01:54:57;-4.40;1.00
7894;DHT22;51343;51.396;6.656;2022-12-18T02:00:29;-4.40;99.90
7894;DHT22;51343;51.396;6.656;2022-12-18T02:06:00;-4.40;99.90
7894;DHT22;51343;51.396;6.656;2022-12-18T02:11:37;-4.50;99.90
7894;DHT22;51343;51.396;6.656;2022-12-18T02:20:04;-4.50;99.90
7894;DHT22;51343;51.396;6.656;2022-12-18T02:25:52;-4.70;1.00
7894;DHT22;51343;51.396;6.656;2022-12-18T02:28:20;-4.70;1.00
7894;DHT22;51343;51.396;6.656;2022-12-18T02:33:51;-4.70;99.90
7894;DHT22;51343;51.396;6.656;2022-12-18T02:39:26;-4.70;99.90
7894;DHT22;51343;51.396;6.656;2022-12-18T02:44:57;-4.70;99.90
7894;DHT22;51343;51.396;6.656;2022-12-18T02:50:30;-4.80;1.00
7894;DHT22;51343;51.396;6.656;2022-12-18T02:53:00;-4.80;99.90
7894;DHT22;51343;51.396;6.656;2022-12-18T02:55:33;-4.80;1.00
7894;DHT22;51343;51.396;6.656;2022-12-18T02:58:03;-4.80;1.00
7894;DHT22;51343;51.396;6.656;2022-12-18T03:00:34;-4.70;1.00
7894;DHT22;51343;51.396;6.656;2022-12-18T03:03:04;-4.70;1.00
7894;DHT22;51343;51.396;6.656;2022-12-18T03:05:33;-4.70;99.90
7894;DHT22;51343;51.396;6.656;2022-12-18T03:08:01;-4.60;99.90
7894;DHT22;51343;51.396;6.656;2022-12-18T03:10:31;-4.50;99.90
7894;DHT22;51343;51.396;6.656;2022-12-18T03:13:00;-4.60;57.00
7894;DHT22;51343;51.396;6.656;2022-12-18T03:15:28;-4.70;1.00
7894;DHT22;51343;51.396;6.656;2022-12-18T03:17:59;-4.80;1.00
7894;DHT22;51343;51.396;6.656;2022-12-18T03:20:28;-4.80;53.60
7894;DHT22;51343;51.396;6.656;2022-12-18T03:22:57;-4.80;1.00
7894;DHT22;51343;51.396;6.656;2022-12-18T03:25:26;-4.70;1.00
7894;DHT22;51343;51.396;6.656;2022-12-18T03:27:54;-4.60;1.00
7894;DHT22;51343;51.396;6.656;2022-12-18T03:30:23;-4.60;1.00
7894;DHT22;51343;51.396;6.656;2022-12-18T03:32:50;-4.40;99.90
7894;DHT22;51343;51.396;6.656;2022-12-18T03:35:22;-4.40;9.20
7894;DHT22;51343;51.396;6.656;2022-12-18T03:37:50;-4.40;1.00
7894;DHT22;51343;51.396;6.656;2022-12-18T03:40:17;-4.40;1.00
7894;DHT22;51343;51.396;6.656;2022-12-18T03:42:46;-4.40;1.00
7894;DHT22;51343;51.396;6.656;2022-12-18T03:45:18;-4.30;1.00
7894;DHT22;51343;51.396;6.656;2022-12-18T03:47:48;-4.30;1.00
7894;DHT22;51343;51.396;6.656;2022-12-18T03:50:20;-4.30;1.00
7894;DHT22;51343;51.396;6.656;2022-12-18T03:52:53;-4.40;1.00
7894;DHT22;51343;51.396;6.656;2022-12-18T03:55:22;-4.40;1.00
7894;DHT22;51343;51.396;6.656;2022-12-18T03:57:55;-4.40;1.00
7894;DHT22;51343;51.396;6.656;2022-12-18T04:00:22;-4.30;1.00
7894;DHT22;51343;51.396;6.656;2022-12-18T04:02:50;-4.20;1.00
7894;DHT22;51343;51.396;6.656;2022-12-18T04:05:17;-4.10;1.00
7894;DHT22;51343;51.396;6.656;2022-12-18T04:07:45;-4.10;99.90
7894;DHT22;51343;51.396;6.656;2022-12-18T04:10:15;-4.10;1.00
7894;DHT22;51343;51.396;6.656;2022-12-18T04:12:42;-4.10;1.00
7894;DHT22;51343;51.396;6.656;2022-12-18T04:15:09;-4.10;1.00
7894;DHT22;51343;51.396;6.656;2022-12-18T04:17:35;-4.20;1.00
7894;DHT22;51343;51.396;6.656;2022-12-18T04:20:03;-4.20;1.00
7894;DHT22;51343;51.396;6.656;2022-12-18T04:22:29;-4.30;1.00
7894;DHT22;51343;51.396;6.656;2022-12-18T04:24:56;-4.20;1.00
7894;DHT22;51343;51.396;6.656;2022-12-18T04:27:24;-4.20;1.00
7894;DHT22;51343;51.396;6.656;2022-12-18T04:32:54;-4.30;1.00
7894;DHT22;51343;51.396;6.656;2022-12-18T04:35:20;-4.40;1.00
7894;DHT22;51343;51.396;6.656;2022-12-18T04:40:51;-4.50;1.00
7894;DHT22;51343;51.396;6.656;2022-12-18T04:46:22;-4.50;99.90
7894;DHT22;51343;51.396;6.656;2022-12-18T04:51:47;-4.50;99.90
7894;DHT22;51343;51.396;6.656;2022-12-18T04:54:20;-4.70;99.90
7894;DHT22;51343;51.396;6.656;2022-12-18T04:56:47;-4.70;1.00
7894;DHT22;51343;51.396;6.656;2022-12-18T04:59:14;-4.80;99.90
7894;DHT22;51343;51.396;6.656;2022-12-18T05:04:44;-4.90;1.00
7894;DHT22;51343;51.396;6.656;2022-12-18T05:07:11;-5.00;1.00
7894;DHT22;51343;51.396;6.656;2022-12-18T05:09:37;-5.10;99.90
7894;DHT22;51343;51.396;6.656;2022-12-18T05:12:04;-5.10;1.00
7894;DHT22;51343;51.396;6.656;2022-12-18T05:14:31;-5.10;99.90
7894;DHT22;51343;51.396;6.656;2022-12-18T05:16:57;-5.10;1.00
7894;DHT22;51343;51.396;6.656;2022-12-18T05:19:24;-5.10;99.90
7894;DHT22;51343;51.396;6.656;2022-12-18T05:21:52;-5.10;99.90
7894;DHT22;51343;51.396;6.656;2022-12-18T05:24:18;-5.10;99.90
7894;DHT22;51343;51.396;6.656;2022-12-18T05:26:45;-5.10;99.90
7894;DHT22;51343;51.396;6.656;2022-12-18T05:29:12;-5.20;9.20
7894;DHT22;51343;51.396;6.656;2022-12-18T05:31:38;-5.10;1.00
7894;DHT22;51343;51.396;6.656;2022-12-18T05:34:05;-5.10;1.00
7894;DHT22;51343;51.396;6.656;2022-12-18T05:36:32;-5.10;1.00
7894;DHT22;51343;51.396;6.656;2022-12-18T05:39:00;-5.10;1.00
7894;DHT22;51343;51.396;6.656;2022-12-18T05:44:32;-5.10;1.00
7894;DHT22;51343;51.396;6.656;2022-12-18T05:50:03;-4.90;1.00
7894;DHT22;51343;51.396;6.656;2022-12-18T05:52:30;-4.80;1.00
7894;DHT22;51343;51.396;6.656;2022-12-18T05:54:58;-4.80;99.90
7894;DHT22;51343;51.396;6.656;2022-12-18T05:57:25;-4.90;67.90
7894;DHT22;51343;51.396;6.656;2022-12-18T05:59:51;-4.80;99.90
7894;DHT22;51343;51.396;6.656;2022-12-18T06:02:18;-4.80;99.90
7894;DHT22;51343;51.396;6.656;2022-12-18T06:04:46;-4.70;99.90
7894;DHT22;51343;51.396;6.656;2022-12-18T06:10:17;-4.60;1.00
7894;DHT22;51343;51.396;6.656;2022-12-18T06:15:51;-4.80;99.90
7894;DHT22;51343;51.396;6.656;2022-12-18T06:21:22;-4.70;99.90
7894;DHT22;51343;51.396;6.656;2022-12-18T06:23:48;-4.80;99.90
7894;DHT22;51343;51.396;6.656;2022-12-18T06:26:16;-4.90;99.90
7894;DHT22;51343;51.396;6.656;2022-12-18T06:28:43;-4.90;99.90
7894;DHT22;51343;51.396;6.656;2022-12-18T06:31:26;-5.00;99.90
7894;DHT22;51343;51.396;6.656;2022-12-18T06:33:52;-5.10;1.00
7894;DHT22;51343;51.396;6.656;2022-12-18T06:36:19;-5.20;1.00
7894;DHT22;51343;51.396;6.656;2022-12-18T06:38:46;-5.20;1.00
7894;DHT22;51343;51.396;6.656;2022-12-18T06:41:18;-5.20;99.90
7894;DHT22;51343;51.396;6.656;2022-12-18T06:43:45;-5.20;99.90
7894;DHT22;51343;51.396;6.656;2022-12-18T06:49:18;-5.20;99.90
7894;DHT22;51343;51.396;6.656;2022-12-18T06:51:44;-5.20;1.00
7894;DHT22;51343;51.396;6.656;2022-12-18T06:54:20;-5.10;1.00
7894;DHT22;51343;51.396;6.656;2022-12-18T06:56:48;-5.20;1.00
7894;DHT22;51343;51.396;6.656;2022-12-18T06:59:15;-5.20;1.00
7894;DHT22;51343;51.396;6.656;2022-12-18T07:01:42;-5.20;1.00
7894;DHT22;51343;51.396;6.656;2022-12-18T07:04:08;-5.10;1.00
7894;DHT22;51343;51.396;6.656;2022-12-18T07:06:38;-5.00;1.00
7894;DHT22;51343;51.396;6.656;2022-12-18T07:09:05;-5.00;1.00
7894;DHT22;51343;51.396;6.656;2022-12-18T07:11:51;-5.00;1.00
7894;DHT22;51343;51.396;6.656;2022-12-18T07:14:18;-4.90;99.90
7894;DHT22;51343;51.396;6.656;2022-12-18T07:16:44;-4.90;1.00
7894;DHT22;51343;51.396;6.656;2022-12-18T07:19:13;-4.80;1.00
7894;DHT22;51343;51.396;6.656;2022-12-18T07:21:40;-4.80;1.00
7894;DHT22;51343;51.396;6.656;2022-12-18T07:24:06;-4.80;1.00
7894;DHT22;51343;51.396;6.656;2022-12-18T07:26:33;-4.80;1.00
7894;DHT22;51343;51.396;6.656;2022-12-18T07:29:01;-4.90;99.90
7894;DHT22;51343;51.396;6.656;2022-12-18T07:31:28;-4.90;99.90
7894;DHT22;51343;51.396;6.656;2022-12-18T07:33:55;-4.80;99.90
7894;DHT22;51343;51.396;6.656;2022-12-18T07:36:21;-4.70;1.00
7894;DHT22;51343;51.396;6.656;2022-12-18T07:38:48;-4.60;99.90
7894;DHT22;51343;51.396;6.656;2022-12-18T07:41:15;-4.50;1.00
7894;DHT22;51343;51.396;6.656;2022-12-18T07:43:49;-4.40;1.00
7894;DHT22;51343;51.396;6.656;2022-12-18T07:46:17;-4.30;1.00
7894;DHT22;51343;51.396;6.656;2022-12-18T07:48:44;-4.20;1.00
7894;DHT22;51343;51.396;6.656;2022-12-18T07:51:12;-4.10;99.90
7894;DHT22;51343;51.396;6.656;2022-12-18T07:53:40;-3.90;1.00
7894;DHT22;51343;51.396;6.656;2022-12-18T07:56:23;-3.80;99.90
7894;DHT22;51343;51.396;6.656;2022-12-18T07:58:55;-3.60;1.00
7894;DHT22;51343;51.396;6.656;2022-12-18T08:04:09;-3.50;99.90
7894;DHT22;51343;51.396;6.656;2022-12-18T08:06:46;-3.50;99.90
7894;DHT22;51343;51.396;6.656;2022-12-18T08:09:13;-3.40;99.90
7894;DHT22;51343;51.396;6.656;2022-12-18T08:14:26;-3.40;99.90
7894;DHT22;51343;51.396;6.656;2022-12-18T08:16:52;-3.30;98.50
7894;DHT22;51343;51.396;6.656;2022-12-18T08:19:21;-3.20;24.70
7894;DHT22;51343;51.396;6.656;2022-12-18T08:21:47;-3.10;1.00
7894;DHT22;51343;51.396;6.656;2022-12-18T08:29:54;-3.10;1.00
7894;DHT22;51343;51.396;6.656;2022-12-18T08:32:21;-3.10;1.00
7894;DHT22;51343;51.396;6.656;2022-12-18T08:37:34;-2.90;1.00
7894;DHT22;51343;51.396;6.656;2022-12-18T08:40:03;-2.90;1.00
7894;DHT22;51343;51.396;6.656;2022-12-18T08:42:30;-2.90;1.00
7894;DHT22;51343;51.396;6.656;2022-12-18T08:45:14;-2.80;1.00
7894;DHT22;51343;51.396;6.656;2022-12-18T08:47:43;-2.70;1.00
7894;DHT22;51343;51.396;6.656;2022-12-18T08:50:09;-2.70;1.00
7894;DHT22;51343;51.396;6.656;2022-12-18T08:52:40;-2.60;1.00
7894;DHT22;51343;51.396;6.656;2022-12-18T08:55:07;-2.60;1.00
7894;DHT22;51343;51.396;6.656;2022-12-18T08:57:34;-2.50;1.00
7894;DHT22;51343;51.396;6.656;2022-12-18T09:00:01;-2.50;1.00
7894;DHT22;51343;51.396;6.656;2022-12-18T09:02:43;-2.40;1.00
7894;DHT22;51343;51.396;6.656;2022-12-18T09:08:14;-2.30;1.00
7894;DHT22;51343;51.396;6.656;2022-12-18T09:10:41;-2.20;99.90
7894;DHT22;51343;51.396;6.656;2022-12-18T09:13:09;-2.20;99.90
7894;DHT22;51343;51.396;6.656;2022-12-18T09:15:39;-2.20;99.90
7894;DHT22;51343;51.396;6.656;2022-12-18T09:18:06;-2.10;99.90
7894;DHT22;51343;51.396;6.656;2022-12-18T09:20:32;-2.10;99.90
7894;DHT22;51343;51.396;6.656;2022-12-18T09:26:14;-2.00;99.90
7894;DHT22;51343;51.396;6.656;2022-12-18T09:31:43;-1.90;99.90
7894;DHT22;51343;51.396;6.656;2022-12-18T09:34:21;-1.80;99.90
7894;DHT22;51343;51.396;6.656;2022-12-18T09:36:51;-1.70;99.90
7894;DHT22;51343;51.396;6.656;2022-12-18T09:39:21;-1.60;99.90
7894;DHT22;51343;51.396;6.656;2022-12-18T09:41:51;-1.50;99.90
7894;DHT22;51343;51.396;6.656;2022-12-18T09:44:25;-1.50;99.90
7894;DHT22;51343;51.396;6.656;2022-12-18T09:47:02;-1.50;99.90
7894;DHT22;51343;51.396;6.656;2022-12-18T09:52:39;-1.40;99.90
7894;DHT22;51343;51.396;6.656;2022-12-18T09:58:14;-1.30;98.70
7894;DHT22;51343;51.396;6.656;2022-12-18T10:03:45;-1.20;72.20
7894;DHT22;51343;51.396;6.656;2022-12-18T10:14:14;-1.00;26.00
7894;DHT22;51343;51.396;6.656;2022-12-18T10:16:47;-0.90;1.00
7894;DHT22;51343;51.396;6.656;2022-12-18T10:22:26;-0.80;3.50
7894;DHT22;51343;51.396;6.656;2022-12-18T10:24:58;-0.70;1.00
7894;DHT22;51343;51.396;6.656;2022-12-18T10:27:45;-0.70;1.00
7894;DHT22;51343;51.396;6.656;2022-12-18T10:33:05;-0.60;1.00
7894;DHT22;51343;51.396;6.656;2022-12-18T10:35:40;-0.50;1.00
7894;DHT22;51343;51.396;6.656;2022-12-18T10:38:20;-0.50;1.00
7894;DHT22;51343;51.396;6.656;2022-12-18T10:43:32;-0.40;1.00
7894;DHT22;51343;51.396;6.656;2022-12-18T10:46:03;-0.30;1.00
7894;DHT22;51343;51.396;6.656;2022-12-18T10:48:39;-0.30;1.00
7894;DHT22;51343;51.396;6.656;2022-12-18T10:51:07;-0.20;1.00
7894;DHT22;51343;51.396;6.656;2022-12-18T10:53:34;-0.20;1.00
7894;DHT22;51343;51.396;6.656;2022-12-18T10:56:02;-0.20;1.00
7894;DHT22;51343;51.396;6.656;2022-12-18T10:58:30;-0.10;1.00
7894;DHT22;51343;51.396;6.656;2022-12-18T11:01:05;-0.10;1.00
7894;DHT22;51343;51.396;6.656;2022-12-18T11:03:42;-0.10;1.00
7894;DHT22;51343;51.396;6.656;2022-12-18T11:06:16;0.00;1.00
7894;DHT22;51343;51.396;6.656;2022-12-18T11:08:44;0.00;1.00
7894;DHT22;51343;51.396;6.656;2022-12-18T11:11:18;0.00;1.00
7894;DHT22;51343;51.396;6.656;2022-12-18T11:13:48;0.10;1.00
7894;DHT22;51343;51.396;6.656;2022-12-18T11:16:18;0.20;1.00
7894;DHT22;51343;51.396;6.656;2022-12-18T11:18:48;0.20;1.00
7894;DHT22;51343;51.396;6.656;2022-12-18T11:21:15;0.20;1.00
7894;DHT22;51343;51.396;6.656;2022-12-18T11:23:45;0.20;1.00
7894;DHT22;51343;51.396;6.656;2022-12-18T11:26:13;0.30;1.00
7894;DHT22;51343;51.396;6.656;2022-12-18T11:28:40;0.40;1.00
7894;DHT22;51343;51.396;6.656;2022-12-18T11:31:17;0.50;1.00
7894;DHT22;51343;51.396;6.656;2022-12-18T11:33:46;0.50;1.00
7894;DHT22;51343;51.396;6.656;2022-12-18T11:36:14;0.60;1.00
7894;DHT22;51343;51.396;6.656;2022-12-18T11:38:42;0.60;1.00
7894;DHT22;51343;51.396;6.656;2022-12-18T11:41:13;0.60;1.00
7894;DHT22;51343;51.396;6.656;2022-12-18T11:43:42;0.60;1.00
7894;DHT22;51343;51.396;6.656;2022-12-18T11:46:12;0.60;1.00
7894;DHT22;51343;51.396;6.656;2022-12-18T11:48:41;0.50;1.00
7894;DHT22;51343;51.396;6.656;2022-12-18T11:51:10;0.50;1.00
7894;DHT22;51343;51.396;6.656;2022-12-18T11:53:39;0.60;1.00
7894;DHT22;51343;51.396;6.656;2022-12-18T11:56:11;0.60;1.00
7894;DHT22;51343;51.396;6.656;2022-12-18T11:58:45;0.60;1.00
7894;DHT22;51343;51.396;6.656;2022-12-18T12:01:17;0.60;1.00
7894;DHT22;51343;51.396;6.656;2022-12-18T12:03:52;0.60;1.00
7894;DHT22;51343;51.396;6.656;2022-12-18T12:06:24;0.60;1.00
7894;DHT22;51343;51.396;6.656;2022-12-18T12:09:01;0.60;1.00
7894;DHT22;51343;51.396;6.656;2022-12-18T12:11:33;0.60;1.00
7894;DHT22;51343;51.396;6.656;2022-12-18T12:14:05;0.60;1.00
7894;DHT22;51343;51.396;6.656;2022-12-18T12:16:39;0.60;1.00
7894;DHT22;51343;51.396;6.656;2022-12-18T12:19:15;0.60;1.00
7894;DHT22;51343;51.396;6.656;2022-12-18T12:21:55;0.60;1.00
7894;DHT22;51343;51.396;6.656;2022-12-18T12:24:37;0.60;1.00
7894;DHT22;51343;51.396;6.656;2022-12-18T12:27:09;0.60;1.00
7894;DHT22;51343;51.396;6.656;2022-12-18T12:29:41;0.60;1.00
7894;DHT22;51343;51.396;6.656;2022-12-18T12:32:16;0.50;1.00
7894;DHT22;51343;51.396;6.656;2022-12-18T12:34:47;0.50;1.00
7894;DHT22;51343;51.396;6.656;2022-12-18T12:37:19;0.50;1.00
7894;DHT22;51343;51.396;6.656;2022-12-18T12:39:50;0.50;1.00
7894;DHT22;51343;51.396;6.656;2022-12-18T12:42:25;0.50;1.00
7894;DHT22;51343;51.396;6.656;2022-12-18T12:45:13;0.50;1.00
7894;DHT22;51343;51.396;6.656;2022-12-18T12:47:43;0.50;1.00
7894;DHT22;51343;51.396;6.656;2022-12-18T12:50:13;0.50;1.00
7894;DHT22;51343;51.396;6.656;2022-12-18T12:52:42;0.50;1.00
7894;DHT22;51343;51.396;6.656;2022-12-18T12:55:20;0.50;1.00
7894;DHT22;51343;51.396;6.656;2022-12-18T12:57:55;0.40;1.00
7894;DHT22;51343;51.396;6.656;2022-12-18T13:00:25;0.50;1.00
7894;DHT22;51343;51.396;6.656;2022-12-18T13:02:55;0.40;1.00
7894;DHT22;51343;51.396;6.656;2022-12-18T13:05:26;0.40;1.00
7894;DHT22;51343;51.396;6.656;2022-12-18T13:07:55;0.50;1.00
7894;DHT22;51343;51.396;6.656;2022-12-18T13:10:26;0.40;1.00
7894;DHT22;51343;51.396;6.656;2022-12-18T13:12:54;0.40;1.00
7894;DHT22;51343;51.396;6.656;2022-12-18T13:15:32;0.50;1.00
7894;DHT22;51343;51.396;6.656;2022-12-18T13:18:03;0.40;1.00
7894;DHT22;51343;51.396;6.656;2022-12-18T13:20:32;0.40;1.00
7894;DHT22;51343;51.396;6.656;2022-12-18T13:23:00;0.40;1.00
7894;DHT22;51343;51.396;6.656;2022-12-18T13:25:29;0.40;1.00
7894;DHT22;51343;51.396;6.656;2022-12-18T13:27:59;0.30;1.00
7894;DHT22;51343;51.396;6.656;2022-12-18T13:41:41;0.30;1.00
7894;DHT22;51343;51.396;6.656;2022-12-18T13:44:17;0.20;1.00
7894;DHT22;51343;51.396;6.656;2022-12-18T13:46:50;0.20;1.00
7894;DHT22;51343;51.396;6.656;2022-12-18T13:49:20;0.20;1.00
7894;DHT22;51343;51.396;6.656;2022-12-18T13:51:48;0.20;1.00
7894;DHT22;51343;51.396;6.656;2022-12-18T13:54:17;0.20;1.00
7894;DHT22;51343;51.396;6.656;2022-12-18T13:56:47;0.10;1.00
7894;DHT22;51343;51.396;6.656;2022-12-18T13:59:15;0.10;1.00
7894;DHT22;51343;51.396;6.656;2022-12-18T14:01:46;0.20;1.00
7894;DHT22;51343;51.396;6.656;2022-12-18T14:04:19;0.10;1.00
7894;DHT22;51343;51.396;6.656;2022-12-18T14:06:46;0.20;1.00
7894;DHT22;51343;51.396;6.656;2022-12-18T14:09:13;0.10;1.00
7894;DHT22;51343;51.396;6.656;2022-12-18T14:11:40;0.10;1.00
7894;DHT22;51343;51.396;6.656;2022-12-18T14:14:14;0.10;1.00
7894;DHT22;51343;51.396;6.656;2022-12-18T14:16:41;0.10;1.00
7894;DHT22;51343;51.396;6.656;2022-12-18T14:19:08;0.10;1.00
7894;DHT22;51343;51.396;6.656;2022-12-18T14:21:36;0.10;1.00
7894;DHT22;51343;51.396;6.656;2022-12-18T14:24:06;0.10;1.00
7894;DHT22;51343;51.396;6.656;2022-12-18T14:26:38;0.10;1.00
7894;DHT22;51343;51.396;6.656;2022-12-18T14:29:20;0.10;1.00
7894;DHT22;51343;51.396;6.656;2022-12-18T14:31:50;0.10;1.00
7894;DHT22;51343;51.396;6.656;2022-12-18T14:34:30;0.10;1.00
7894;DHT22;51343;51.396;6.656;2022-12-18T14:36:56;0.10;1.00
7894;DHT22;51343;51.396;6.656;2022-12-18T14:39:23;0.10;1.00
7894;DHT22;51343;51.396;6.656;2022-12-18T14:41:51;0.00;1.00
7894;DHT22;51343;51.396;6.656;2022-12-18T14:44:19;0.00;1.00
7894;DHT22;51343;51.396;6.656;2022-12-18T14:46:48;0.00;1.00
7894;DHT22;51343;51.396;6.656;2022-12-18T14:49:19;0.00;1.00
7894;DHT22;51343;51.396;6.656;2022-12-18T14:51:48;0.00;1.00
7894;DHT22;51343;51.396;6.656;2022-12-18T14:54:16;0.00;1.00
7894;DHT22;51343;51.396;6.656;2022-12-18T14:56:44;0.00;1.00
7894;DHT22;51343;51.396;6.656;2022-12-18T14:59:12;-0.10;1.00
7894;DHT22;51343;51.396;6.656;2022-12-18T15:01:45;-0.10;1.00
7894;DHT22;51343;51.396;6.656;2022-12-18T15:04:25;-0.10;1.00
7894;DHT22;51343;51.396;6.656;2022-12-18T15:07:02;-0.10;1.00
7894;DHT22;51343;51.396;6.656;2022-12-18T15:09:29;-0.10;1.00
7894;DHT22;51343;51.396;6.656;2022-12-18T15:11:56;-0.10;1.00
7894;DHT22;51343;51.396;6.656;2022-12-18T15:14:37;-0.10;1.00
7894;DHT22;51343;51.396;6.656;2022-12-18T15:17:14;-0.20;1.00
7894;DHT22;51343;51.396;6.656;2022-12-18T15:19:45;-0.20;1.00
7894;DHT22;51343;51.396;6.656;2022-12-18T15:22:20;-0.20;1.00
7894;DHT22;51343;51.396;6.656;2022-12-18T15:24:47;-0.20;1.00
7894;DHT22;51343;51.396;6.656;2022-12-18T15:27:22;-0.20;1.00
7894;DHT22;51343;51.396;6.656;2022-12-18T15:32:36;-0.20;1.00
7894;DHT22;51343;51.396;6.656;2022-12-18T15:35:07;-0.20;1.00
7894;DHT22;51343;51.396;6.656;2022-12-18T15:37:40;-0.30;1.00
7894;DHT22;51343;51.396;6.656;2022-12-18T15:40:08;-0.20;1.00
7894;DHT22;51343;51.396;6.656;2022-12-18T15:42:39;-0.20;1.00
7894;DHT22;51343;51.396;6.656;2022-12-18T15:45:23;-0.30;1.00
7894;DHT22;51343;51.396;6.656;2022-12-18T15:47:51;-0.30;1.00
7894;DHT22;51343;51.396;6.656;2022-12-18T15:50:18;-0.30;1.00
7894;DHT22;51343;51.396;6.656;2022-12-18T15:55:17;-0.30;1.00
7894;DHT22;51343;51.396;6.656;2022-12-18T15:58:03;-0.30;1.00
7894;DHT22;51343;51.396;6.656;2022-12-18T16:00:30;-0.30;1.00
7894;DHT22;51343;51.396;6.656;2022-12-18T16:03:01;-0.30;1.00
7894;DHT22;51343;51.396;6.656;2022-12-18T16:05:29;-0.30;1.00
7894;DHT22;51343;51.396;6.656;2022-12-18T16:07:59;-0.30;1.00
7894;DHT22;51343;51.396;6.656;2022-12-18T16:10:26;-0.40;1.00
7894;DHT22;51343;51.396;6.656;2022-12-18T16:12:52;-0.40;1.00
7894;DHT22;51343;51.396;6.656;2022-12-18T16:15:22;-0.40;1.00
7894;DHT22;51343;51.396;6.656;2022-12-18T16:17:49;-0.40;1.00
7894;DHT22;51343;51.396;6.656;2022-12-18T16:20:18;-0.40;1.00
7894;DHT22;51343;51.396;6.656;2022-12-18T16:22:46;-0.40;1.00
7894;DHT22;51343;51.396;6.656;2022-12-18T16:25:17;-0.40;1.00
7894;DHT22;51343;51.396;6.656;2022-12-18T16:27:44;-0.40;1.00
7894;DHT22;51343;51.396;6.656;2022-12-18T16:30:12;-0.40;1.00
7894;DHT22;51343;51.396;6.656;2022-12-18T16:32:39;-0.50;1.00
7894;DHT22;51343;51.396;6.656;2022-12-18T16:35:08;-0.50;1.00
7894;DHT22;51343;51.396;6.656;2022-12-18T16:37:36;-0.50;1.00
7894;DHT22;51343;51.396;6.656;2022-12-18T16:40:03;-0.50;1.00
7894;DHT22;51343;51.396;6.656;2022-12-18T16:42:30;-0.50;1.00
7894;DHT22;51343;51.396;6.656;2022-12-18T16:44:57;-0.50;1.00
7894;DHT22;51343;51.396;6.656;2022-12-18T16:47:24;-0.50;1.00
7894;DHT22;51343;51.396;6.656;2022-12-18T16:49:51;-0.50;1.00
7894;DHT22;51343;51.396;6.656;2022-12-18T16:52:17;-0.50;1.00
7894;DHT22;51343;51.396;6.656;2022-12-18T16:54:47;-0.50;1.00
7894;DHT22;51343;51.396;6.656;2022-12-18T16:57:15;-0.50;1.00
7894;DHT22;51343;51.396;6.656;2022-12-18T16:59:42;-0.60;1.00
7894;DHT22;51343;51.396;6.656;2022-12-18T17:02:10;-0.50;1.00
7894;DHT22;51343;51.396;6.656;2022-12-18T17:04:38;-0.60;3.20
7894;DHT22;51343;51.396;6.656;2022-12-18T17:07:06;-0.60;10.70
7894;DHT22;51343;51.396;6.656;2022-12-18T17:09:32;-0.60;21.90
7894;DHT22;51343;51.396;6.656;2022-12-18T17:12:02;-0.60;22.50
7894;DHT22;51343;51.396;6.656;2022-12-18T17:14:28;-0.60;40.80
7894;DHT22;51343;51.396;6.656;2022-12-18T17:16:56;-0.60;41.20
7894;DHT22;51343;51.396;6.656;2022-12-18T17:19:24;-0.60;49.20
7894;DHT22;51343;51.396;6.656;2022-12-18T17:21:51;-0.60;78.30
7894;DHT22;51343;51.396;6.656;2022-12-18T17:24:18;-0.60;95.10
7894;DHT22;51343;51.396;6.656;2022-12-18T17:26:45;-0.60;95.00
7894;DHT22;51343;51.396;6.656;2022-12-18T17:29:14;-0.60;99.90
7894;DHT22;51343;51.396;6.656;2022-12-18T17:31:41;-0.60;99.90
7894;DHT22;51343;51.396;6.656;2022-12-18T17:34:08;-0.60;99.90
7894;DHT22;51343;51.396;6.656;2022-12-18T17:36:35;-0.60;99.90
7894;DHT22;51343;51.396;6.656;2022-12-18T17:39:03;-0.60;99.90
7894;DHT22;51343;51.396;6.656;2022-12-18T17:41:30;-0.70;99.90
7894;DHT22;51343;51.396;6.656;2022-12-18T17:43:58;-0.60;99.90
7894;DHT22;51343;51.396;6.656;2022-12-18T17:46:27;-0.70;99.90
7894;DHT22;51343;51.396;6.656;2022-12-18T17:48:56;-0.70;99.90
7894;DHT22;51343;51.396;6.656;2022-12-18T17:51:23;-0.70;99.90
7894;DHT22;51343;51.396;6.656;2022-12-18T17:53:52;-0.70;99.90
7894;DHT22;51343;51.396;6.656;2022-12-18T17:56:19;-0.70;99.90
7894;DHT22;51343;51.396;6.656;2022-12-18T17:58:46;-0.70;99.90
7894;DHT22;51343;51.396;6.656;2022-12-18T18:01:18;-0.70;99.90
7894;DHT22;51343;51.396;6.656;2022-12-18T18:03:47;-0.70;99.90
7894;DHT22;51343;51.396;6.656;2022-12-18T18:06:15;-0.70;99.90
7894;DHT22;51343;51.396;6.656;2022-12-18T18:08:43;-0.70;99.90
7894;DHT22;51343;51.396;6.656;2022-12-18T18:11:10;-0.70;99.90
7894;DHT22;51343;51.396;6.656;2022-12-18T18:14:11;-0.80;99.90
7894;DHT22;51343;51.396;6.656;2022-12-18T18:16:38;-0.80;99.90
7894;DHT22;51343;51.396;6.656;2022-12-18T18:19:07;-0.70;99.90
7894;DHT22;51343;51.396;6.656;2022-12-18T18:21:36;-0.70;99.90
7894;DHT22;51343;51.396;6.656;2022-12-18T18:24:04;-0.80;99.90
7894;DHT22;51343;51.396;6.656;2022-12-18T18:26:31;-0.80;99.90
7894;DHT22;51343;51.396;6.656;2022-12-18T18:28:58;-0.80;99.90
7894;DHT22;51343;51.396;6.656;2022-12-18T18:31:25;-0.80;99.90
7894;DHT22;51343;51.396;6.656;2022-12-18T18:33:52;-0.90;99.90
7894;DHT22;51343;51.396;6.656;2022-12-18T18:36:21;-0.90;99.90